sensor_id;sensor_type;location;lat;lon;timestamp;pressure;altitude;pressure_sealevel;temperature;humidity
42111;BME280;27766;52.174;5.456;2023-06-19T00:01:12;100676.88;;;22.29;82.01
42111;BME280;27766;52.174;5.456;2023-06-19T00:03:39;100676.78;;;22.32;81.88
42111;BME280;27766;52.174;5.456;2023-06-19T00:06:07;100687.25;;;22.34;82.25
42111;BME280;27766;52.174;5.456;2023-06-19T00:08:34;100693.72;;;22.25;83.34
42111;BME280;27766;52.174;5.456;2023-06-19T00:11:02;100688.47;;;22.23;84.13
42111;BME280;27766;52.174;5.456;2023-06-19T00:13:29;100688.66;;;22.17;85.04
42111;BME280;27766;52.174;5.456;2023-06-19T00:15:56;100701.91;;;22.16;85.68
42111;BME280;27766;52.174;5.456;2023-06-19T00:18:28;100693.19;;;22.13;86.24
42111;BME280;27766;52.174;5.456;2023-06-19T00:20:55;100678.28;;;22.12;86.99
42111;BME280;27766;52.174;5.456;2023-06-19T00:23:23;100688.81;;;22.12;87.91
42111;BME280;27766;52.174;5.456;2023-06-19T00:25:50;100688.81;;;22.12;87.49
42111;BME280;27766;52.174;5.456;2023-06-19T00:28:17;100687.91;;;22.13;88.52
42111;BME280;27766;52.174;5.456;2023-06-19T00:30:47;100687.06;;;22.13;88.86
42111;BME280;27766;52.174;5.456;2023-06-19T00:33:14;100697.59;;;22.13;90.73
42111;BME280;27766;52.174;5.456;2023-06-19T00:35:41;100698.47;;;22.13;91.68
42111;BME280;27766;52.174;5.456;2023-06-19T00:38:08;100694.16;;;22.11;92.84
42111;BME280;27766;52.174;5.456;2023-06-19T00:40:36;100700.19;;;22.14;93.49
42111;BME280;27766;52.174;5.456;2023-06-19T00:43:03;100699.28;;;22.16;94.71
42111;BME280;27766;52.174;5.456;2023-06-19T00:45:30;100703.63;;;22.17;95.48
42111;BME280;27766;52.174;5.456;2023-06-19T00:47:59;100703.72;;;22.13;96.60
42111;BME280;27766;52.174;5.456;2023-06-19T00:50:30;100710.81;;;22.11;98.79
42111;BME280;27766;52.174;5.456;2023-06-19T00:52:59;100710.97;;;22.07;99.85
42111;BME280;27766;52.174;5.456;2023-06-19T00:55:28;100718.09;;;22.03;100.00
42111;BME280;27766;52.174;5.456;2023-06-19T00:57:57;100726.00;;;22.03;100.00
42111;BME280;27766;52.174;5.456;2023-06-19T01:00:24;100724.53;;;21.94;100.00
42111;BME280;27766;52.174;5.456;2023-06-19T01:02:52;100718.41;;;21.94;100.00
42111;BME280;27766;52.174;5.456;2023-06-19T01:05:19;100718.44;;;21.92;100.00
42111;BME280;27766;52.174;5.456;2023-06-19T01:08:00;100720.41;;;21.86;100.00
42111;BME280;27766;52.174;5.456;2023-06-19T01:10:41;100728.47;;;21.81;100.00
42111;BME280;27766;52.174;5.456;2023-06-19T01:15:58;100729.78;;;21.66;100.00
42111;BME280;27766;52.174;5.456;2023-06-19T01:18:26;100733.41;;;21.62;100.00
42111;BME280;27766;52.174;5.456;2023-06-19T01:20:54;100736.09;;;21.60;100.00
42111;BME280;27766;52.174;5.456;2023-06-19T01:23:21;100732.66;;;21.58;100.00
42111;BME280;27766;52.174;5.456;2023-06-19T01:25:48;100731.91;;;21.53;100.00
42111;BME280;27766;52.174;5.456;2023-06-19T01:28:15;100746.09;;;21.47;100.00
42111;BME280;27766;52.174;5.456;2023-06-19T01:30:44;100740.91;;;21.44;100.00
42111;BME280;27766;52.174;5.456;2023-06-19T01:33:22;100750.78;;;21.38;100.00
42111;BME280;27766;52.174;5.456;2023-06-19T01:35:52;100738.81;;;21.26;100.00
42111;BME280;27766;52.174;5.456;2023-06-19T01:38:22;100739.84;;;21.20;100.00
42111;BME280;27766;52.174;5.456;2023-06-19T01:40:53;100741.69;;;21.16;100.00
42111;BME280;27766;52.174;5.456;2023-06-19T01:43:21;100745.41;;;21.09;100.00
42111;BME280;27766;52.174;5.456;2023-06-19T01:45:49;100752.41;;;21.09;100.00
42111;BME280;27766;52.174;5.456;2023-06-19T01:48:17;100747.28;;;21.04;100.00
42111;BME280;27766;52.174;5.456;2023-06-19T01:50:48;100756.25;;;20.97;100.00
42111;BME280;27766;52.174;5.456;2023-06-19T01:53:16;100765.22;;;20.90;100.00
42111;BME280;27766;52.174;5.456;2023-06-19T01:55:43;100761.00;;;20.84;100.00
42111;BME280;27766;52.174;5.456;2023-06-19T01:58:10;100776.72;;;20.85;100.00
42111;BME280;27766;52.174;5.456;2023-06-19T02:00:37;100768.84;;;20.85;100.00
42111;BME280;27766;52.174;5.456;2023-06-19T02:03:05;100762.84;;;20.80;100.00
42111;BME280;27766;52.174;5.456;2023-06-19T02:05:32;100760.38;;;20.73;100.00
42111;BME280;27766;52.174;5.456;2023-06-19T02:07:59;100767.34;;;20.75;100.00
42111;BME280;27766;52.174;5.456;2023-06-19T02:10:27;100766.47;;;20.75;100.00
42111;BME280;27766;52.174;5.456;2023-06-19T02:12:54;100770.91;;;20.73;100.00
42111;BME280;27766;52.174;5.456;2023-06-19T02:15:21;100767.78;;;20.56;100.00
42111;BME280;27766;52.174;5.456;2023-06-19T02:17:48;100768.56;;;20.60;100.00
42111;BME280;27766;52.174;5.456;2023-06-19T02:20:16;100765.94;;;20.60;100.00
42111;BME280;27766;52.174;5.456;2023-06-19T02:22:43;100766.00;;;20.57;100.00
42111;BME280;27766;52.174;5.456;2023-06-19T02:25:10;100764.22;;;20.58;100.00
42111;BME280;27766;52.174;5.456;2023-06-19T02:27:37;100776.56;;;20.55;100.00
42111;BME280;27766;52.174;5.456;2023-06-19T02:30:05;100773.09;;;20.53;100.00
42111;BME280;27766;52.174;5.456;2023-06-19T02:32:32;100766.13;;;20.52;100.00
42111;BME280;27766;52.174;5.456;2023-06-19T02:34:59;100778.41;;;20.52;100.00
42111;BME280;27766;52.174;5.456;2023-06-19T02:37:26;100786.25;;;20.53;100.00
42111;BME280;27766;52.174;5.456;2023-06-19T02:39:53;100786.25;;;20.53;100.00
42111;BME280;27766;52.174;5.456;2023-06-19T02:42:21;100788.88;;;20.53;100.00
42111;BME280;27766;52.174;5.456;2023-06-19T02:44:48;100790.66;;;20.51;100.00
42111;BME280;27766;52.174;5.456;2023-06-19T02:47:15;100788.03;;;20.53;100.00
42111;BME280;27766;52.174;5.456;2023-06-19T02:49:42;100790.66;;;20.53;100.00
42111;BME280;27766;52.174;5.456;2023-06-19T02:52:09;100786.25;;;20.53;100.00
42111;BME280;27766;52.174;5.456;2023-06-19T02:54:36;100788.88;;;20.53;100.00
42111;BME280;27766;52.174;5.456;2023-06-19T02:57:03;100803.03;;;20.48;100.00
42111;BME280;27766;52.174;5.456;2023-06-19T02:59:31;100810.06;;;20.47;100.00
42111;BME280;27766;52.174;5.456;2023-06-19T03:01:58;100806.63;;;20.44;100.00
42111;BME280;27766;52.174;5.456;2023-06-19T03:04:25;100808.31;;;20.46;100.00
42111;BME280;27766;52.174;5.456;2023-06-19T03:06:55;100812.84;;;20.39;100.00
42111;BME280;27766;52.174;5.456;2023-06-19T03:09:22;100812.84;;;20.41;100.00
42111;BME280;27766;52.174;5.456;2023-06-19T03:11:49;100811.94;;;20.42;100.00
42111;BME280;27766;52.174;5.456;2023-06-19T03:14:17;100799.81;;;20.35;100.00
42111;BME280;27766;52.174;5.456;2023-06-19T03:16:44;100808.53;;;20.37;100.00
42111;BME280;27766;52.174;5.456;2023-06-19T03:19:11;100810.22;;;20.41;100.00
42111;BME280;27766;52.174;5.456;2023-06-19T03:21:38;100804.06;;;20.42;100.00
42111;BME280;27766;52.174;5.456;2023-06-19T03:24:05;100806.69;;;20.42;100.00
42111;BME280;27766;52.174;5.456;2023-06-19T03:26:33;100807.59;;;20.41;100.00
42111;BME280;27766;52.174;5.456;2023-06-19T03:29:00;100804.94;;;20.41;100.00
42111;BME280;27766;52.174;5.456;2023-06-19T03:31:27;100805.84;;;20.40;100.00
42111;BME280;27766;52.174;5.456;2023-06-19T03:33:54;100813.72;;;20.40;100.00
42111;BME280;27766;52.174;5.456;2023-06-19T03:36:21;100811.13;;;20.38;100.00
42111;BME280;27766;52.174;5.456;2023-06-19T03:38:49;100822.47;;;20.40;100.00
42111;BME280;27766;52.174;5.456;2023-06-19T03:41:17;100823.31;;;20.43;100.00
42111;BME280;27766;52.174;5.456;2023-06-19T03:43:44;100826.03;;;20.38;100.00
42111;BME280;27766;52.174;5.456;2023-06-19T03:46:11;100820.94;;;20.32;100.00
42111;BME280;27766;52.174;5.456;2023-06-19T03:48:38;100833.09;;;20.36;100.00
42111;BME280;27766;52.174;5.456;2023-06-19T03:51:05;100831.44;;;20.32;100.00
42111;BME280;27766;52.174;5.456;2023-06-19T03:53:32;100825.34;;;20.30;100.00
42111;BME280;27766;52.174;5.456;2023-06-19T03:56:00;100842.00;;;20.29;100.00
42111;BME280;27766;52.174;5.456;2023-06-19T03:58:27;100843.78;;;20.28;100.00
42111;BME280;27766;52.174;5.456;2023-06-19T04:00:54;100853.50;;;20.23;100.00
42111;BME280;27766;52.174;5.456;2023-06-19T04:03:21;100853.66;;;20.17;100.00
42111;BME280;27766;52.174;5.456;2023-06-19T04:05:48;100845.88;;;20.12;100.00
42111;BME280;27766;52.174;5.456;2023-06-19T04:08:16;100854.78;;;20.06;100.00
42111;BME280;27766;52.174;5.456;2023-06-19T04:10:43;100851.22;;;20.09;100.00
42111;BME280;27766;52.174;5.456;2023-06-19T04:13:11;100859.13;;;20.07;100.00
42111;BME280;27766;52.174;5.456;2023-06-19T04:15:38;100859.97;;;20.08;100.00
42111;BME280;27766;52.174;5.456;2023-06-19T04:18:06;100860.03;;;20.06;100.00
42111;BME280;27766;52.174;5.456;2023-06-19T04:20:33;100856.84;;;19.90;100.00
42111;BME280;27766;52.174;5.456;2023-06-19T04:23:00;100860.31;;;19.92;100.00
42111;BME280;27766;52.174;5.456;2023-06-19T04:25:28;100871.75;;;19.90;100.00
42111;BME280;27766;52.174;5.456;2023-06-19T04:27:55;100867.41;;;19.87;100.00
42111;BME280;27766;52.174;5.456;2023-06-19T04:30:22;100874.41;;;19.88;100.00
42111;BME280;27766;52.174;5.456;2023-06-19T04:32:50;100877.03;;;19.87;100.00
42111;BME280;27766;52.174;5.456;2023-06-19T04:35:20;100869.22;;;19.82;100.00
42111;BME280;27766;52.174;5.456;2023-06-19T04:37:47;100886.75;;;19.82;100.00
42111;BME280;27766;52.174;5.456;2023-06-19T04:40:16;100889.38;;;19.82;100.00
42111;BME280;27766;52.174;5.456;2023-06-19T04:42:44;100894.63;;;19.82;100.00
42111;BME280;27766;52.174;5.456;2023-06-19T04:45:12;100897.22;;;19.85;100.00
42111;BME280;27766;52.174;5.456;2023-06-19T04:47:39;100900.72;;;19.82;100.00
42111;BME280;27766;52.174;5.456;2023-06-19T04:50:19;100892.88;;;19.81;100.00
42111;BME280;27766;52.174;5.456;2023-06-19T04:52:47;100895.47;;;19.82;100.00
42111;BME280;27766;52.174;5.456;2023-06-19T04:55:17;100903.66;;;19.68;100.00
42111;BME280;27766;52.174;5.456;2023-06-19T04:57:44;100912.41;;;19.66;100.00
42111;BME280;27766;52.174;5.456;2023-06-19T05:00:13;100910.72;;;19.63;100.00
42111;BME280;27766;52.174;5.456;2023-06-19T05:02:42;100912.53;;;19.61;100.00
42111;BME280;27766;52.174;5.456;2023-06-19T05:05:13;100921.25;;;19.61;100.00
42111;BME280;27766;52.174;5.456;2023-06-19T05:07:40;100921.34;;;19.57;100.00
42111;BME280;27766;52.174;5.456;2023-06-19T05:10:07;100924.16;;;19.46;100.00
42111;BME280;27766;52.174;5.456;2023-06-19T05:12:35;100922.38;;;19.46;100.00
42111;BME280;27766;52.174;5.456;2023-06-19T05:15:02;100918.78;;;19.54;100.00
42111;BME280;27766;52.174;5.456;2023-06-19T05:17:30;100933.53;;;19.59;100.00
42111;BME280;27766;52.174;5.456;2023-06-19T05:19:57;100937.03;;;19.60;100.00
42111;BME280;27766;52.174;5.456;2023-06-19T05:22:24;100930.06;;;19.59;100.00
42111;BME280;27766;52.174;5.456;2023-06-19T05:24:51;100934.44;;;19.58;100.00
42111;BME280;27766;52.174;5.456;2023-06-19T05:27:18;100937.78;;;19.67;100.00
42111;BME280;27766;52.174;5.456;2023-06-19T05:29:46;100940.53;;;19.60;100.00
42111;BME280;27766;52.174;5.456;2023-06-19T05:32:14;100944.09;;;19.56;100.00
42111;BME280;27766;52.174;5.456;2023-06-19T05:34:42;100946.72;;;19.56;100.00
42111;BME280;27766;52.174;5.456;2023-06-19T05:37:09;100947.66;;;19.54;100.00
42111;BME280;27766;52.174;5.456;2023-06-19T05:39:36;100952.75;;;19.61;100.00
42111;BME280;27766;52.174;5.456;2023-06-19T05:42:04;100953.66;;;19.60;100.00
42111;BME280;27766;52.174;5.456;2023-06-19T05:44:31;100955.28;;;19.68;100.00
42111;BME280;27766;52.174;5.456;2023-06-19T05:46:58;100951.78;;;19.66;100.00
42111;BME280;27766;52.174;5.456;2023-06-19T05:49:25;100968.34;;;19.71;100.00
42111;BME280;27766;52.174;5.456;2023-06-19T05:51:52;100970.00;;;19.75;100.00
42111;BME280;27766;52.174;5.456;2023-06-19T05:54:19;100971.97;;;19.64;100.00
42111;BME280;27766;52.174;5.456;2023-06-19T05:56:47;100978.16;;;19.59;100.00
42111;BME280;27766;52.174;5.456;2023-06-19T05:59:17;100972.03;;;19.60;100.00
42111;BME280;27766;52.174;5.456;2023-06-19T06:01:44;100973.03;;;19.53;100.00
42111;BME280;27766;52.174;5.456;2023-06-19T06:04:13;100971.13;;;19.61;100.00
42111;BME280;27766;52.174;5.456;2023-06-19T06:06:41;100974.00;;;19.48;100.00
42111;BME280;27766;52.174;5.456;2023-06-19T06:09:08;100982.63;;;19.54;100.00
42111;BME280;27766;52.174;5.456;2023-06-19T06:11:38;100988.78;;;19.53;100.00
42111;BME280;27766;52.174;5.456;2023-06-19T06:14:06;100993.06;;;19.59;100.00
42111;BME280;27766;52.174;5.456;2023-06-19T06:16:33;100993.81;;;19.66;100.00
42111;BME280;27766;52.174;5.456;2023-06-19T06:19:00;101001.53;;;19.75;100.00
42111;BME280;27766;52.174;5.456;2023-06-19T06:21:27;100998.94;;;19.73;100.00
42111;BME280;27766;52.174;5.456;2023-06-19T06:23:54;101005.78;;;19.82;100.00
42111;BME280;27766;52.174;5.456;2023-06-19T06:26:21;101015.38;;;19.83;100.00
42111;BME280;27766;52.174;5.456;2023-06-19T06:28:49;101016.31;;;19.81;100.00
42111;BME280;27766;52.174;5.456;2023-06-19T06:31:16;101021.38;;;19.93;100.00
42111;BME280;27766;52.174;5.456;2023-06-19T06:33:43;101025.88;;;19.86;100.00
42111;BME280;27766;52.174;5.456;2023-06-19T06:36:10;101032.97;;;19.80;100.00
42111;BME280;27766;52.174;5.456;2023-06-19T06:38:48;101040.03;;;19.76;100.00
42111;BME280;27766;52.174;5.456;2023-06-19T06:41:16;101039.94;;;19.81;100.00
42111;BME280;27766;52.174;5.456;2023-06-19T06:43:44;101032.78;;;19.90;100.00
42111;BME280;27766;52.174;5.456;2023-06-19T06:46:12;101032.78;;;19.92;100.00
42111;BME280;27766;52.174;5.456;2023-06-19T06:48:39;101037.03;;;19.98;100.00
42111;BME280;27766;52.174;5.456;2023-06-19T06:51:06;101044.06;;;19.97;100.00
42111;BME280;27766;52.174;5.456;2023-06-19T06:53:33;101048.59;;;19.89;100.00
42111;BME280;27766;52.174;5.456;2023-06-19T06:56:01;101052.22;;;19.78;100.00
42111;BME280;27766;52.174;5.456;2023-06-19T06:58:29;101055.09;;;19.65;100.00
42111;BME280;27766;52.174;5.456;2023-06-19T07:00:56;101054.16;;;19.69;100.00
42111;BME280;27766;52.174;5.456;2023-06-19T07:03:24;101066.25;;;19.77;100.00
42111;BME280;27766;52.174;5.456;2023-06-19T07:05:51;101054.88;;;19.77;100.00
42111;BME280;27766;52.174;5.456;2023-06-19T07:08:19;101058.13;;;19.93;100.00
42111;BME280;27766;52.174;5.456;2023-06-19T07:10:46;101066.03;;;19.93;100.00
42111;BME280;27766;52.174;5.456;2023-06-19T07:13:13;101065.94;;;19.98;100.00
42111;BME280;27766;52.174;5.456;2023-06-19T07:15:40;101078.97;;;20.04;100.00
42111;BME280;27766;52.174;5.456;2023-06-19T07:18:07;101079.97;;;19.98;100.00
42111;BME280;27766;52.174;5.456;2023-06-19T07:20:35;101079.03;;;20.01;100.00
42111;BME280;27766;52.174;5.456;2023-06-19T07:23:02;101078.06;;;20.06;100.00
42111;BME280;27766;52.174;5.456;2023-06-19T07:25:29;101093.03;;;20.01;100.00
42111;BME280;27766;52.174;5.456;2023-06-19T07:27:56;101088.50;;;20.11;100.00
42111;BME280;27766;52.174;5.456;2023-06-19T07:30:23;101094.53;;;20.16;100.00
42111;BME280;27766;52.174;5.456;2023-06-19T07:32:51;101094.44;;;20.19;100.00
42111;BME280;27766;52.174;5.456;2023-06-19T07:35:18;101103.63;;;20.45;100.00
42111;BME280;27766;52.174;5.456;2023-06-19T07:37:46;101099.94;;;20.54;100.00
42111;BME280;27766;52.174;5.456;2023-06-19T07:40:14;101086.72;;;20.59;100.00
42111;BME280;27766;52.174;5.456;2023-06-19T07:42:42;101096.91;;;20.77;100.00
42111;BME280;27766;52.174;5.456;2023-06-19T07:45:11;101095.03;;;20.82;100.00
42111;BME280;27766;52.174;5.456;2023-06-19T07:47:38;101100.78;;;21.03;100.00
42111;BME280;27766;52.174;5.456;2023-06-19T07:50:06;101095.59;;;20.97;100.00
42111;BME280;27766;52.174;5.456;2023-06-19T07:52:33;101110.69;;;20.90;100.00
42111;BME280;27766;52.174;5.456;2023-06-19T07:55:01;101114.44;;;20.78;100.00
42111;BME280;27766;52.174;5.456;2023-06-19T07:57:28;101111.03;;;20.70;100.00
42111;BME280;27766;52.174;5.456;2023-06-19T07:59:55;101120.16;;;20.97;100.00
42111;BME280;27766;52.174;5.456;2023-06-19T08:02:23;101127.19;;;20.97;100.00
42111;BME280;27766;52.174;5.456;2023-06-19T08:04:50;101119.78;;;20.72;100.00
42111;BME280;27766;52.174;5.456;2023-06-19T08:07:17;101133.81;;;20.69;100.00
42111;BME280;27766;52.174;5.456;2023-06-19T08:09:45;101133.94;;;20.65;100.00
42111;BME280;27766;52.174;5.456;2023-06-19T08:12:26;101133.59;;;20.83;100.00
42111;BME280;27766;52.174;5.456;2023-06-19T08:14:53;101135.03;;;21.00;100.00
42111;BME280;27766;52.174;5.456;2023-06-19T08:17:20;101123.19;;;21.21;100.00
42111;BME280;27766;52.174;5.456;2023-06-19T08:19:47;101128.72;;;21.48;100.00
42111;BME280;27766;52.174;5.456;2023-06-19T08:22:15;101134.72;;;21.55;100.00
42111;BME280;27766;52.174;5.456;2023-06-19T08:24:43;101128.31;;;21.66;100.00
42111;BME280;27766;52.174;5.456;2023-06-19T08:27:10;101132.34;;;21.83;100.00
42111;BME280;27766;52.174;5.456;2023-06-19T08:29:38;101135.66;;;21.90;100.00
42111;BME280;27766;52.174;5.456;2023-06-19T08:32:07;101144.56;;;21.84;100.00
42111;BME280;27766;52.174;5.456;2023-06-19T08:34:36;101145.56;;;21.80;100.00
42111;BME280;27766;52.174;5.456;2023-06-19T08:37:05;101144.69;;;21.40;100.00
42111;BME280;27766;52.174;5.456;2023-06-19T08:39:32;101144.69;;;21.40;100.00
42111;BME280;27766;52.174;5.456;2023-06-19T08:42:00;101149.69;;;21.53;100.00
42111;BME280;27766;52.174;5.456;2023-06-19T08:44:27;101157.25;;;21.68;100.00
42111;BME280;27766;52.174;5.456;2023-06-19T08:46:54;101162.84;;;21.92;100.00
42111;BME280;27766;52.174;5.456;2023-06-19T08:49:21;101169.63;;;22.02;100.00
42111;BME280;27766;52.174;5.456;2023-06-19T08:51:49;101170.94;;;22.19;100.00
42111;BME280;27766;52.174;5.456;2023-06-19T08:54:17;101182.53;;;22.13;100.00
42111;BME280;27766;52.174;5.456;2023-06-19T08:56:47;101186.94;;;22.12;100.00
42111;BME280;27766;52.174;5.456;2023-06-19T08:59:17;101184.78;;;21.92;100.00
42111;BME280;27766;52.174;5.456;2023-06-19T09:01:48;101184.09;;;21.84;100.00
42111;BME280;27766;52.174;5.456;2023-06-19T09:04:21;101181.34;;;21.90;100.00
42111;BME280;27766;52.174;5.456;2023-06-19T09:06:56;101190.56;;;21.71;100.00
42111;BME280;27766;52.174;5.456;2023-06-19T09:09:25;101187.06;;;21.70;100.00
42111;BME280;27766;52.174;5.456;2023-06-19T09:12:07;101188.50;;;21.84;100.00
42111;BME280;27766;52.174;5.456;2023-06-19T09:17:07;101184.69;;;21.58;100.00
42111;BME280;27766;52.174;5.456;2023-06-19T09:19:37;101188.00;;;21.68;100.00
42111;BME280;27766;52.174;5.456;2023-06-19T09:22:07;101195.31;;;21.92;100.00
42111;BME280;27766;52.174;5.456;2023-06-19T09:24:41;101192.50;;;22.00;100.00
42111;BME280;27766;52.174;5.456;2023-06-19T09:27:09;101192.41;;;22.03;100.00
42111;BME280;27766;52.174;5.456;2023-06-19T09:29:38;101195.41;;;21.88;100.00
42111;BME280;27766;52.174;5.456;2023-06-19T09:32:23;101200.78;;;21.44;100.00
42111;BME280;27766;52.174;5.456;2023-06-19T09:34:52;101206.28;;;21.33;100.00
42111;BME280;27766;52.174;5.456;2023-06-19T09:37:25;101195.22;;;21.58;100.00
42111;BME280;27766;52.174;5.456;2023-06-19T09:39:57;101206.34;;;21.71;100.00
42111;BME280;27766;52.174;5.456;2023-06-19T09:42:33;101205.34;;;21.76;100.00
42111;BME280;27766;52.174;5.456;2023-06-19T09:45:06;101216.38;;;21.94;100.00
42111;BME280;27766;52.174;5.456;2023-06-19T09:47:42;101222.03;;;22.14;100.00
42111;BME280;27766;52.174;5.456;2023-06-19T09:50:15;101227.38;;;22.11;100.00
42111;BME280;27766;52.174;5.456;2023-06-19T09:52:46;101222.50;;;22.30;100.00
42111;BME280;27766;52.174;5.456;2023-06-19T09:55:13;101229.63;;;22.27;100.00
42111;BME280;27766;52.174;5.456;2023-06-19T09:57:41;101230.84;;;22.13;100.00
42111;BME280;27766;52.174;5.456;2023-06-19T10:00:11;101245.50;;;22.25;100.00
42111;BME280;27766;52.174;5.456;2023-06-19T10:02:45;101253.59;;;22.18;100.00
42111;BME280;27766;52.174;5.456;2023-06-19T10:05:13;101253.78;;;22.46;100.00
42111;BME280;27766;52.174;5.456;2023-06-19T10:07:45;101253.97;;;22.40;100.00
42111;BME280;27766;52.174;5.456;2023-06-19T10:10:24;101253.59;;;22.18;100.00
42111;BME280;27766;52.174;5.456;2023-06-19T10:13:00;101248.91;;;22.29;100.00
42111;BME280;27766;52.174;5.456;2023-06-19T10:15:44;101242.69;;;22.33;100.00
42111;BME280;27766;52.174;5.456;2023-06-19T10:18:14;101247.34;;;22.58;100.00
42111;BME280;27766;52.174;5.456;2023-06-19T10:20:44;101242.84;;;22.25;100.00
42111;BME280;27766;52.174;5.456;2023-06-19T10:23:17;101239.03;;;22.40;100.00
42111;BME280;27766;52.174;5.456;2023-06-19T10:25:48;101231.78;;;22.49;100.00
42111;BME280;27766;52.174;5.456;2023-06-19T10:28:22;101228.81;;;22.94;100.00
42111;BME280;27766;52.174;5.456;2023-06-19T10:33:24;101239.00;;;23.69;100.00
42111;BME280;27766;52.174;5.456;2023-06-19T10:35:53;101226.16;;;23.85;100.00
42111;BME280;27766;52.174;5.456;2023-06-19T10:38:20;101230.94;;;24.02;100.00
42111;BME280;27766;52.174;5.456;2023-06-19T10:40:47;101239.94;;;24.25;100.00
42111;BME280;27766;52.174;5.456;2023-06-19T10:43:24;101240.19;;;24.43;98.94
42111;BME280;27766;52.174;5.456;2023-06-19T10:45:54;101247.88;;;24.24;97.37
42111;BME280;27766;52.174;5.456;2023-06-19T10:48:23;101251.00;;;24.10;100.00
42111;BME280;27766;52.174;5.456;2023-06-19T10:50:50;101241.06;;;24.16;100.00
42111;BME280;27766;52.174;5.456;2023-06-19T10:53:29;101235.13;;;24.63;91.69
42111;BME280;27766;52.174;5.456;2023-06-19T10:55:58;101231.41;;;24.69;91.22
42111;BME280;27766;52.174;5.456;2023-06-19T10:58:26;101236.94;;;24.34;89.90
42111;BME280;27766;52.174;5.456;2023-06-19T11:00:54;101234.16;;;24.12;93.59
42111;BME280;27766;52.174;5.456;2023-06-19T11:03:21;101227.72;;;24.48;88.74
42111;BME280;27766;52.174;5.456;2023-06-19T11:05:49;101237.41;;;24.47;88.35
42111;BME280;27766;52.174;5.456;2023-06-19T11:08:21;101229.78;;;24.11;94.58
42111;BME280;27766;52.174;5.456;2023-06-19T11:10:49;101242.19;;;24.09;90.95
42111;BME280;27766;52.174;5.456;2023-06-19T11:13:20;101239.06;;;24.50;89.08
42111;BME280;27766;52.174;5.456;2023-06-19T11:15:48;101232.38;;;24.67;80.18
42111;BME280;27766;52.174;5.456;2023-06-19T11:18:18;101229.22;;;24.55;83.63
42111;BME280;27766;52.174;5.456;2023-06-19T11:23:30;101236.97;;;24.08;90.85
42111;BME280;27766;52.174;5.456;2023-06-19T11:26:04;101232.06;;;24.49;86.63
42111;BME280;27766;52.174;5.456;2023-06-19T11:28:32;101230.44;;;24.18;88.47
42111;BME280;27766;52.174;5.456;2023-06-19T11:31:01;101217.25;;;23.88;91.69
42111;BME280;27766;52.174;5.456;2023-06-19T11:33:30;101228.28;;;24.02;92.00
42111;BME280;27766;52.174;5.456;2023-06-19T11:36:01;101227.28;;;24.60;87.75
42111;BME280;27766;52.174;5.456;2023-06-19T11:38:28;101222.94;;;25.32;79.67
42111;BME280;27766;52.174;5.456;2023-06-19T11:40:56;101234.66;;;25.50;68.87
42111;BME280;27766;52.174;5.456;2023-06-19T11:43:28;101236.75;;;26.10;67.10
42111;BME280;27766;52.174;5.456;2023-06-19T11:46:06;101235.06;;;26.71;61.76
42111;BME280;27766;52.174;5.456;2023-06-19T11:48:37;101231.84;;;27.25;57.37
42111;BME280;27766;52.174;5.456;2023-06-19T11:51:05;101247.00;;;27.23;56.45
42111;BME280;27766;52.174;5.456;2023-06-19T11:53:32;101242.16;;;27.52;56.86
42111;BME280;27766;52.174;5.456;2023-06-19T11:55:59;101239.31;;;28.47;52.90
42111;BME280;27766;52.174;5.456;2023-06-19T11:58:27;101234.78;;;28.49;50.56
42111;BME280;27766;52.174;5.456;2023-06-19T12:00:54;101236.09;;;28.40;49.63
42111;BME280;27766;52.174;5.456;2023-06-19T12:03:23;101232.13;;;27.58;50.91
42111;BME280;27766;52.174;5.456;2023-06-19T12:05:51;101231.03;;;27.43;52.65
42111;BME280;27766;52.174;5.456;2023-06-19T12:08:18;101242.13;;;26.72;54.15
42111;BME280;27766;52.174;5.456;2023-06-19T12:10:48;101234.38;;;25.80;58.07
42111;BME280;27766;52.174;5.456;2023-06-19T12:13:15;101225.94;;;25.23;60.83
42111;BME280;27766;52.174;5.456;2023-06-19T12:15:43;101240.34;;;25.63;58.96
42111;BME280;27766;52.174;5.456;2023-06-19T12:18:10;101237.16;;;25.77;59.32
42111;BME280;27766;52.174;5.456;2023-06-19T12:20:39;101236.38;;;25.97;59.60
42111;BME280;27766;52.174;5.456;2023-06-19T12:23:06;101240.84;;;25.73;61.59
42111;BME280;27766;52.174;5.456;2023-06-19T12:25:33;101242.34;;;25.80;64.81
42111;BME280;27766;52.174;5.456;2023-06-19T12:28:00;101243.16;;;25.82;61.75
42111;BME280;27766;52.174;5.456;2023-06-19T12:30:27;101239.66;;;25.82;60.73
42111;BME280;27766;52.174;5.456;2023-06-19T12:32:54;101238.34;;;25.70;61.37
42111;BME280;27766;52.174;5.456;2023-06-19T12:35:22;101230.09;;;25.54;61.80
42111;BME280;27766;52.174;5.456;2023-06-19T12:37:50;101227.72;;;25.92;60.24
42111;BME280;27766;52.174;5.456;2023-06-19T12:40:17;101244.16;;;26.45;52.51
42111;BME280;27766;52.174;5.456;2023-06-19T12:42:45;101250.09;;;26.51;50.96
42111;BME280;27766;52.174;5.456;2023-06-19T12:45:14;101252.00;;;26.68;51.96
42111;BME280;27766;52.174;5.456;2023-06-19T12:47:43;101240.50;;;27.68;49.89
42111;BME280;27766;52.174;5.456;2023-06-19T12:50:11;101245.97;;;28.38;48.41
42111;BME280;27766;52.174;5.456;2023-06-19T12:52:39;101250.53;;;28.54;44.63
42111;BME280;27766;52.174;5.456;2023-06-19T12:55:06;101240.34;;;27.71;45.87
42111;BME280;27766;52.174;5.456;2023-06-19T12:57:33;101241.91;;;28.31;45.98
42111;BME280;27766;52.174;5.456;2023-06-19T13:00:01;101238.94;;;28.72;43.93